createdAt,value
2018-01-28T00:00:39.868Z,1015.25
2018-01-28T00:01:49.706Z,1015.24
2018-01-28T00:02:59.473Z,1015.28
2018-01-28T00:04:09.530Z,1015.27
2018-01-28T00:05:19.351Z,1015.27
2018-01-28T00:06:29.399Z,1015.27
2018-01-28T00:07:39.477Z,1015.25
2018-01-28T00:08:49.537Z,1015.23
2018-01-28T00:09:59.588Z,1015.24
2018-01-28T00:11:09.389Z,1015.24
2018-01-28T00:12:19.441Z,1015.3
2018-01-28T00:13:29.313Z,1015.32
2018-01-28T00:14:39.374Z,1015.32
2018-01-28T00:15:49.492Z,1015.31
2018-01-28T00:16:59.290Z,1015.26
2018-01-28T00:18:09.078Z,1015.29
2018-01-28T00:19:18.902Z,1015.26
2018-01-28T00:20:28.958Z,1015.23
2018-01-28T00:21:39.045Z,1015.25
2018-01-28T00:22:48.926Z,1015.27
2018-01-28T00:23:58.969Z,1015.27
2018-01-28T00:25:09.075Z,1015.27
2018-01-28T00:26:19.114Z,1015.29
2018-01-28T00:27:29.213Z,1015.29
2018-01-28T00:28:39.006Z,1015.33
2018-01-28T00:29:49.190Z,1015.3
2018-01-28T00:30:59.305Z,1015.34
2018-01-28T00:32:09.366Z,1015.37
2018-01-28T00:33:19.509Z,1015.43
2018-01-28T00:34:29.632Z,1015.43
2018-01-28T00:35:39.673Z,1015.43
2018-01-28T00:36:49.712Z,1015.41
2018-01-28T00:37:59.757Z,1015.47
2018-01-28T00:39:09.616Z,1015.46
2018-01-28T00:40:19.913Z,1015.51
2018-01-28T00:41:29.986Z,1015.45
2018-01-28T00:42:40.092Z,1015.48
2018-01-28T00:43:50.155Z,1015.43
2018-01-28T00:44:59.947Z,1015.39
2018-01-28T00:46:10.007Z,1015.39
2018-01-28T00:47:20.059Z,1015.4
2018-01-28T00:48:29.827Z,1015.39
2018-01-28T00:49:39.868Z,1015.38
2018-01-28T00:50:50.022Z,1015.37
2018-01-28T00:51:59.555Z,1015.36
2018-01-28T00:53:09.601Z,1015.4
2018-01-28T00:54:19.704Z,1015.38
2018-01-28T00:55:31.146Z,1015.39
2018-01-28T00:56:41.208Z,1015.4
2018-01-28T00:57:51.307Z,1015.38
2018-01-28T00:59:01.101Z,1015.43
2018-01-28T01:00:11.146Z,1015.37
2018-01-28T01:01:20.926Z,1015.39
2018-01-28T01:02:31.015Z,1015.4
2018-01-28T01:03:41.415Z,1015.45
2018-01-28T01:04:51.531Z,1015.42
2018-01-28T01:06:01.433Z,1015.42
2018-01-28T01:07:11.478Z,1015.39
2018-01-28T01:08:21.255Z,1015.39
2018-01-28T01:09:31.409Z,1015.32
2018-01-28T01:10:41.475Z,1015.23
2018-01-28T01:11:51.514Z,1015.23
2018-01-28T01:13:01.590Z,1015.24
2018-01-28T01:14:11.735Z,1015.27
2018-01-28T01:15:21.837Z,1015.26
2018-01-28T01:16:31.897Z,1015.25
2018-01-28T01:17:41.980Z,1015.17
2018-01-28T01:18:51.759Z,1015.18
2018-01-28T01:20:01.617Z,1015.11
2018-01-28T01:21:11.660Z,1015.13
2018-01-28T01:22:21.759Z,1015.13
2018-01-28T01:23:31.597Z,1015.1
2018-01-28T01:24:41.644Z,1015.09
2018-01-28T01:25:51.682Z,1015.07
2018-01-28T01:27:01.481Z,1015.07
2018-01-28T01:28:11.275Z,1015.02
2018-01-28T01:29:21.265Z,1015.08
2018-01-28T01:30:31.360Z,1015.03
2018-01-28T01:31:41.286Z,1015.01
2018-01-28T01:32:51.059Z,1015
2018-01-28T01:34:00.899Z,1014.98
2018-01-28T01:35:10.728Z,1014.99
2018-01-28T01:36:20.788Z,1015
2018-01-28T01:37:30.852Z,1015.03
2018-01-28T01:38:40.880Z,1015.03
2018-01-28T01:39:51.389Z,1015.04
2018-01-28T01:41:01.183Z,1015
2018-01-28T01:42:11.230Z,1014.92
2018-01-28T01:43:21.272Z,1014.88
2018-01-28T01:44:31.390Z,1014.93
2018-01-28T01:45:41.421Z,1014.85
2018-01-28T01:46:51.332Z,1014.81
2018-01-28T01:48:01.219Z,1014.8
2018-01-28T01:49:11.275Z,1014.79
2018-01-28T01:50:21.382Z,1014.8
2018-01-28T01:51:31.529Z,1014.82
2018-01-28T01:52:41.692Z,1014.79
2018-01-28T01:53:51.552Z,1014.77
2018-01-28T01:55:01.602Z,1014.75
2018-01-28T01:56:11.417Z,1014.73
2018-01-28T01:57:21.244Z,1014.73
2018-01-28T01:58:31.222Z,1014.71
2018-01-28T01:59:41.279Z,1014.69
2018-01-28T02:00:51.339Z,1014.65
2018-01-28T02:02:01.385Z,1014.67
2018-01-28T02:03:11.445Z,1014.67
2018-01-28T02:04:21.542Z,1014.63
2018-01-28T02:05:31.590Z,1014.59
2018-01-28T02:06:41.632Z,1014.61
2018-01-28T02:07:51.733Z,1014.58
2018-01-28T02:09:01.787Z,1014.59
2018-01-28T02:10:11.827Z,1014.64
2018-01-28T02:11:21.345Z,1014.6
2018-01-28T02:12:31.406Z,1014.58
2018-01-28T02:13:41.193Z,1014.6
2018-01-28T02:14:51.235Z,1014.65
2018-01-28T02:16:01.287Z,1014.62
2018-01-28T02:17:11.330Z,1014.66
2018-01-28T02:18:21.402Z,1014.59
2018-01-28T02:19:31.443Z,1014.56
2018-01-28T02:20:41.476Z,1014.54
2018-01-28T02:21:51.518Z,1014.49
2018-01-28T02:23:01.554Z,1014.46
2018-01-28T02:24:11.604Z,1014.46
2018-01-28T02:25:21.664Z,1014.46
2018-01-28T02:26:31.467Z,1014.53
2018-01-28T02:27:41.524Z,1014.55
2018-01-28T02:28:51.581Z,1014.58
2018-01-28T02:30:01.639Z,1014.58
2018-01-28T02:31:11.705Z,1014.55
2018-01-28T02:32:21.753Z,1014.55
2018-01-28T02:33:31.809Z,1014.54
2018-01-28T02:34:41.416Z,1014.61
2018-01-28T02:35:51.192Z,1014.62
2018-01-28T02:37:01.229Z,1014.62
2018-01-28T02:38:11.293Z,1014.61
2018-01-28T02:39:21.367Z,1014.64
2018-01-28T02:40:31.453Z,1014.67
2018-01-28T02:41:41.514Z,1014.69
2018-01-28T02:42:51.563Z,1014.73
2018-01-28T02:44:01.351Z,1014.66
2018-01-28T02:45:11.405Z,1014.69
2018-01-28T02:46:20.957Z,1014.71
2018-01-28T02:47:30.496Z,1014.69
2018-01-28T02:48:40.567Z,1014.67
2018-01-28T02:49:50.362Z,1014.65
2018-01-28T02:51:00.399Z,1014.62
2018-01-28T02:52:10.198Z,1014.6
2018-01-28T02:53:20.234Z,1014.6
2018-01-28T02:54:30.360Z,1014.6
2018-01-28T02:55:40.140Z,1014.63
2018-01-28T02:56:50.208Z,1014.63
2018-01-28T02:58:00.274Z,1014.71
2018-01-28T02:59:10.332Z,1014.69
2018-01-28T03:00:20.406Z,1014.74
2018-01-28T03:01:30.448Z,1014.73
2018-01-28T03:02:40.497Z,1014.71
2018-01-28T03:34:32.112Z,1014.52
2018-01-28T03:35:41.433Z,1014.52
2018-01-28T03:36:51.471Z,1014.53
2018-01-28T03:38:01.501Z,1014.45
2018-01-28T03:39:11.282Z,1014.5
2018-01-28T03:40:21.339Z,1014.46
2018-01-28T03:41:31.125Z,1014.46
2018-01-28T03:42:40.917Z,1014.4
2018-01-28T03:43:50.966Z,1014.39
2018-01-28T03:45:00.752Z,1014.42
2018-01-28T03:46:10.785Z,1014.39
2018-01-28T03:47:20.572Z,1014.36
2018-01-28T03:48:30.155Z,1014.34
2018-01-28T03:49:39.962Z,1014.32
2018-01-28T03:50:49.998Z,1014.26
2018-01-28T03:51:59.841Z,1014.23
2018-01-28T03:53:09.365Z,1014.22
2018-01-28T03:54:19.405Z,1014.17
2018-01-28T03:55:29.451Z,1014.12
2018-01-28T03:56:39.253Z,1014.12
2018-01-28T03:57:49.294Z,1014.1
2018-01-28T03:58:59.995Z,1014.08
2018-01-28T04:00:10.028Z,1014.05
2018-01-28T04:01:20.067Z,1014.06
2018-01-28T04:02:30.109Z,1014.08
2018-01-28T04:03:41.125Z,1014.06
2018-01-28T04:04:51.229Z,1014.01
2018-01-28T04:06:01.012Z,1014.07
2018-01-28T04:07:11.054Z,1013.97
2018-01-28T04:08:21.106Z,1013.99
2018-01-28T04:09:31.177Z,1013.92
2018-01-28T04:10:41.227Z,1013.88
2018-01-28T04:11:51.280Z,1013.89
2018-01-28T04:13:01.079Z,1013.93
2018-01-28T04:14:11.157Z,1013.94
2018-01-28T04:15:21.192Z,1013.91
2018-01-28T04:16:30.712Z,1013.91
2018-01-28T04:17:40.760Z,1013.9
2018-01-28T04:18:50.811Z,1013.87
2018-01-28T04:20:01.161Z,1013.84
2018-01-28T04:21:11.271Z,1013.82
2018-01-28T04:22:20.788Z,1013.83
2018-01-28T04:23:30.835Z,1013.83
2018-01-28T04:24:40.620Z,1013.85
2018-01-28T04:25:50.661Z,1013.91
2018-01-28T04:27:00.701Z,1013.87
2018-01-28T04:28:10.756Z,1013.86
2018-01-28T04:29:20.267Z,1013.9
2018-01-28T04:30:30.036Z,1013.91
2018-01-28T04:31:40.074Z,1013.91
2018-01-28T04:32:50.179Z,1013.99
2018-01-28T04:34:00.237Z,1013.95
2018-01-28T04:35:10.300Z,1013.97
2018-01-28T04:36:20.328Z,1014.01
2018-01-28T04:37:30.373Z,1014.05
2018-01-28T04:38:39.952Z,1014.04
2018-01-28T04:39:49.978Z,1014.05
2018-01-28T04:40:59.766Z,1014.05
2018-01-28T04:42:09.818Z,1014.04
2018-01-28T04:43:19.858Z,1014.04
2018-01-28T04:44:29.700Z,1014
2018-01-28T04:45:39.746Z,1013.96
2018-01-28T04:46:49.523Z,1013.91
2018-01-28T04:47:59.566Z,1013.93
2018-01-28T04:49:09.610Z,1013.88
2018-01-28T04:50:19.429Z,1013.89
2018-01-28T04:51:29.474Z,1013.88
2018-01-28T04:52:39.258Z,1013.89
2018-01-28T04:53:49.293Z,1013.89
2018-01-28T04:54:59.064Z,1013.92
2018-01-28T04:56:09.112Z,1013.95
2018-01-28T04:57:19.174Z,1013.94
2018-01-28T04:58:29.212Z,1013.95
2018-01-28T04:59:39.303Z,1014.01
2018-01-28T05:00:49.336Z,1013.98
2018-01-28T05:01:59.376Z,1013.98
2018-01-28T05:03:09.169Z,1013.98
2018-01-28T05:04:19.242Z,1013.98
2018-01-28T05:05:29.306Z,1014
2018-01-28T05:06:39.348Z,1013.96
2018-01-28T05:07:49.455Z,1013.96
2018-01-28T05:08:59.233Z,1013.99
2018-01-28T05:10:09.267Z,1013.97
2018-01-28T05:11:19.301Z,1013.99
2018-01-28T05:12:29.591Z,1013.93
2018-01-28T05:13:39.364Z,1013.95
2018-01-28T05:14:49.415Z,1013.89
2018-01-28T05:15:59.198Z,1013.95
2018-01-28T05:17:09.260Z,1013.92
2018-01-28T05:18:19.305Z,1013.96
2018-01-28T05:19:29.094Z,1013.94
2018-01-28T05:20:38.868Z,1013.93
2018-01-28T05:21:48.652Z,1013.96
2018-01-28T05:22:58.697Z,1013.9
2018-01-28T05:24:08.741Z,1013.86
2018-01-28T05:25:18.851Z,1013.91
2018-01-28T05:26:28.890Z,1013.86
2018-01-28T05:27:38.935Z,1013.88
2018-01-28T05:28:48.728Z,1013.89
2018-01-28T05:29:58.263Z,1013.91
2018-01-28T05:31:08.049Z,1013.94
2018-01-28T05:32:18.117Z,1013.94
2018-01-28T05:33:28.168Z,1013.99
2018-01-28T05:34:38.227Z,1014.01
2018-01-28T05:35:48.258Z,1014.05
2018-01-28T05:36:58.320Z,1014.12
2018-01-28T05:38:08.350Z,1014.11
2018-01-28T05:39:18.398Z,1014.07
2018-01-28T05:40:28.449Z,1014.03
2018-01-28T05:41:38.477Z,1013.93
2018-01-28T05:42:48.569Z,1013.98
2018-01-28T05:43:58.615Z,1014.02
2018-01-28T05:45:08.664Z,1014.04
2018-01-28T05:46:18.705Z,1014.05
2018-01-28T05:47:28.754Z,1014.02
2018-01-28T05:48:38.322Z,1013.95
2018-01-28T05:49:48.364Z,1013.96
2018-01-28T05:50:58.135Z,1013.92
2018-01-28T05:52:08.172Z,1013.85
2018-01-28T05:53:18.213Z,1013.78
2018-01-28T05:54:27.981Z,1013.77
2018-01-28T05:55:38.038Z,1013.78
2018-01-28T05:56:47.827Z,1013.81
2018-01-28T05:57:57.876Z,1013.71
2018-01-28T05:59:07.658Z,1013.69
2018-01-28T06:00:17.689Z,1013.68
2018-01-28T06:01:27.474Z,1013.62
2018-01-28T06:02:37.566Z,1013.59
2018-01-28T06:03:47.608Z,1013.6
2018-01-28T06:04:57.656Z,1013.64
2018-01-28T06:06:07.718Z,1013.67
2018-01-28T06:07:17.759Z,1013.71
2018-01-28T06:08:27.803Z,1013.74
2018-01-28T06:09:37.573Z,1013.72
2018-01-28T06:10:47.610Z,1013.73
2018-01-28T06:11:57.657Z,1013.72
2018-01-28T06:13:07.750Z,1013.67
2018-01-28T06:14:17.897Z,1013.61
2018-01-28T06:15:27.939Z,1013.63
2018-01-28T06:16:37.727Z,1013.67
2018-01-28T06:17:47.510Z,1013.69
2018-01-28T06:18:57.306Z,1013.76
2018-01-28T06:20:07.348Z,1013.7
2018-01-28T06:21:17.387Z,1013.67
2018-01-28T06:22:27.439Z,1013.62
2018-01-28T06:23:37.269Z,1013.66
2018-01-28T06:24:47.330Z,1013.65
2018-01-28T06:25:57.359Z,1013.71
2018-01-28T06:27:07.403Z,1013.73
2018-01-28T06:28:17.171Z,1013.72
2018-01-28T06:29:26.943Z,1013.75
2018-01-28T06:30:36.728Z,1013.83
2018-01-28T06:31:46.766Z,1013.86
2018-01-28T06:32:56.814Z,1013.89
2018-01-28T06:34:06.595Z,1013.78
2018-01-28T06:35:16.432Z,1013.89
2018-01-28T06:36:26.489Z,1013.87
2018-01-28T06:37:36.585Z,1013.91
2018-01-28T06:38:46.650Z,1013.94
2018-01-28T06:39:56.708Z,1013.87
2018-01-28T06:41:06.247Z,1013.91
2018-01-28T06:42:16.297Z,1014.05
2018-01-28T06:43:26.358Z,1013.94
2018-01-28T06:44:36.404Z,1013.88
2018-01-28T06:45:46.447Z,1013.89
2018-01-28T06:46:56.530Z,1013.91
2018-01-28T06:48:06.572Z,1013.99
2018-01-28T06:49:16.356Z,1013.92
2018-01-28T06:50:26.441Z,1013.91
2018-01-28T06:51:36.485Z,1014
2018-01-28T06:52:46.265Z,1013.95
2018-01-28T06:53:56.049Z,1013.88
2018-01-28T06:55:06.095Z,1013.91
2018-01-28T06:56:16.148Z,1013.79
2018-01-28T06:57:25.939Z,1013.79
2018-01-28T06:58:35.995Z,1013.73
2018-01-28T06:59:45.781Z,1013.72
2018-01-28T07:00:55.575Z,1013.78
2018-01-28T07:02:05.630Z,1013.81
2018-01-28T07:03:15.398Z,1013.83
2018-01-28T07:04:24.942Z,1013.91
2018-01-28T07:05:34.475Z,1013.94
2018-01-28T07:06:44.516Z,1013.93
2018-01-28T07:07:54.306Z,1013.98
2018-01-28T07:09:04.352Z,1013.98
2018-01-28T07:10:14.403Z,1014
2018-01-28T07:11:24.450Z,1013.98
2018-01-28T07:12:34.484Z,1013.88
2018-01-28T07:13:44.282Z,1013.87
2018-01-28T07:14:54.345Z,1013.8
2018-01-28T07:16:04.457Z,1013.77
2018-01-28T07:17:14.511Z,1013.79
2018-01-28T07:18:24.554Z,1013.79
2018-01-28T07:19:34.355Z,1013.79
2018-01-28T07:20:44.393Z,1013.74
2018-01-28T07:21:54.439Z,1013.64
2018-01-28T07:23:04.496Z,1013.62
2018-01-28T07:24:14.524Z,1013.61
2018-01-28T07:25:24.566Z,1013.66
2018-01-28T07:26:34.352Z,1013.58
2018-01-28T07:27:44.138Z,1013.61
2018-01-28T07:28:54.200Z,1013.66
2018-01-28T07:30:03.993Z,1013.72
2018-01-28T07:31:13.764Z,1013.68
2018-01-28T07:32:23.830Z,1013.67
2018-01-28T07:33:33.879Z,1013.69
2018-01-28T07:34:43.665Z,1013.64
2018-01-28T07:35:53.463Z,1013.62
2018-01-28T07:37:03.504Z,1013.63
2018-01-28T07:38:13.602Z,1013.62
2018-01-28T07:39:23.696Z,1013.61
2018-01-28T07:40:33.746Z,1013.66
2018-01-28T07:41:43.795Z,1013.7
2018-01-28T07:42:53.582Z,1013.66
2018-01-28T07:44:03.643Z,1013.67
2018-01-28T07:45:13.158Z,1013.59
2018-01-28T07:46:23.205Z,1013.49
2018-01-28T07:47:33.263Z,1013.52
2018-01-28T07:48:43.086Z,1013.54
2018-01-28T07:49:52.936Z,1013.52
2018-01-28T07:51:02.710Z,1013.55
2018-01-28T07:52:12.735Z,1013.49
2018-01-28T07:53:22.532Z,1013.49
2018-01-28T07:54:32.585Z,1013.5
2018-01-28T07:55:42.652Z,1013.48
2018-01-28T07:56:52.698Z,1013.44
2018-01-28T07:58:02.766Z,1013.48
2018-01-28T07:59:12.806Z,1013.4
2018-01-28T08:00:22.868Z,1013.44
2018-01-28T08:01:32.908Z,1013.45
2018-01-28T08:02:42.712Z,1013.38
2018-01-28T08:03:52.504Z,1013.48
2018-01-28T08:05:02.555Z,1013.47
2018-01-28T08:06:12.620Z,1013.45
2018-01-28T08:07:22.680Z,1013.47
2018-01-28T08:08:32.727Z,1013.44
2018-01-28T08:09:42.770Z,1013.44
2018-01-28T08:10:52.824Z,1013.5
2018-01-28T08:12:02.937Z,1013.48
2018-01-28T08:13:12.998Z,1013.44
2018-01-28T08:14:23.125Z,1013.55
2018-01-28T08:15:33.239Z,1013.35
2018-01-28T08:16:43.357Z,1013.4
2018-01-28T08:17:53.805Z,1013.4
2018-01-28T08:19:03.880Z,1013.37
2018-01-28T08:20:13.844Z,1013.51
2018-01-28T08:21:23.899Z,1013.4
2018-01-28T08:22:33.941Z,1013.38
2018-01-28T08:23:44.058Z,1013.45
2018-01-28T08:24:54.159Z,1013.42
2018-01-28T08:26:04.038Z,1013.45
2018-01-28T08:27:14.086Z,1013.44
2018-01-28T08:28:24.400Z,1013.45
2018-01-28T08:29:34.473Z,1013.45
2018-01-28T08:30:44.318Z,1013.49
2018-01-28T08:31:54.425Z,1013.41
2018-01-28T08:33:04.522Z,1013.4
2018-01-28T08:34:14.600Z,1013.38
2018-01-28T08:35:24.647Z,1013.37
2018-01-28T08:36:34.717Z,1013.51
2018-01-28T08:37:44.265Z,1013.53
2018-01-28T08:38:54.051Z,1013.54
2018-01-28T08:40:03.847Z,1013.53
2018-01-28T08:41:13.963Z,1013.52
2018-01-28T08:42:24.014Z,1013.59
2018-01-28T08:43:34.063Z,1013.51
2018-01-28T08:44:44.121Z,1013.5
2018-01-28T08:45:54.168Z,1013.54
2018-01-28T08:47:04.209Z,1013.54
2018-01-28T08:48:14.005Z,1013.55
2018-01-28T08:49:23.815Z,1013.54
2018-01-28T08:50:33.862Z,1013.52
2018-01-28T08:51:43.923Z,1013.56
2018-01-28T08:52:54.042Z,1013.53
2018-01-28T08:54:04.086Z,1013.54
2018-01-28T08:55:14.201Z,1013.64
2018-01-28T08:56:24.268Z,1013.58
2018-01-28T08:57:34.061Z,1013.58
2018-01-28T08:58:44.131Z,1013.56
2018-01-28T08:59:54.172Z,1013.53
2018-01-28T09:01:03.960Z,1013.54
2018-01-28T09:02:14.016Z,1013.5
2018-01-28T09:03:23.844Z,1013.44
2018-01-28T09:04:33.663Z,1013.5
2018-01-28T09:05:43.726Z,1013.44
2018-01-28T09:06:53.843Z,1013.57
2018-01-28T09:08:03.925Z,1013.41
2018-01-28T09:09:14.017Z,1013.33
2018-01-28T09:10:24.080Z,1013.46
2018-01-28T09:11:34.150Z,1013.3
2018-01-28T09:12:43.699Z,1013.32
2018-01-28T09:13:53.762Z,1013.32
2018-01-28T09:15:03.820Z,1013.23
2018-01-28T09:16:13.357Z,1013.25
2018-01-28T09:17:23.174Z,1013.23
2018-01-28T09:18:32.996Z,1013.3
2018-01-28T09:19:42.822Z,1013.34
2018-01-28T09:20:52.658Z,1013.39
2018-01-28T09:22:02.721Z,1013.3
2018-01-28T09:23:12.514Z,1013.41
2018-01-28T09:24:22.613Z,1013.51
2018-01-28T09:25:32.685Z,1013.45
2018-01-28T09:26:42.790Z,1013.45
2018-01-28T09:27:52.636Z,1013.59
2018-01-28T09:29:02.701Z,1013.5
2018-01-28T09:30:12.806Z,1013.54
2018-01-28T09:31:22.854Z,1013.65
2018-01-28T09:32:32.908Z,1013.53
2018-01-28T09:33:42.964Z,1013.54
2018-01-28T09:34:53.047Z,1013.52
2018-01-28T09:36:03.157Z,1013.47
2018-01-28T09:37:13.215Z,1013.47
2018-01-28T09:38:23.323Z,1013.43
2018-01-28T09:39:33.391Z,1013.44
2018-01-28T09:40:43.450Z,1013.41
2018-01-28T09:41:53.292Z,1013.38
2018-01-28T09:43:03.092Z,1013.4
2018-01-28T09:44:13.150Z,1013.47
2018-01-28T09:45:22.943Z,1013.39
2018-01-28T09:46:32.997Z,1013.43
2018-01-28T09:47:43.082Z,1013.47
2018-01-28T09:48:52.886Z,1013.42
2018-01-28T09:50:02.937Z,1013.49
2018-01-28T09:51:12.984Z,1013.4
2018-01-28T09:52:23.057Z,1013.41
2018-01-28T09:53:33.312Z,1013.39
2018-01-28T09:54:43.375Z,1013.36
2018-01-28T09:55:53.429Z,1013.35
2018-01-28T09:57:03.498Z,1013.33
2018-01-28T09:58:13.305Z,1013.27
2018-01-28T09:59:23.422Z,1013.24
2018-01-28T10:00:33.474Z,1013.24
2018-01-28T10:01:43.531Z,1013.21
2018-01-28T10:02:53.593Z,1013.24
2018-01-28T10:04:03.427Z,1013.29
2018-01-28T10:05:13.486Z,1013.4
2018-01-28T10:06:23.282Z,1013.21
2018-01-28T10:07:33.349Z,1013.33
2018-01-28T10:08:43.211Z,1013.34
2018-01-28T10:09:53.278Z,1013.37
2018-01-28T10:11:03.340Z,1013.28
2018-01-28T10:12:13.435Z,1013.23
2018-01-28T10:13:23.520Z,1013.21
2018-01-28T10:14:33.127Z,1013.28
2018-01-28T10:15:43.186Z,1013.21
2018-01-28T10:16:53.243Z,1013.17
2018-01-28T10:18:03.060Z,1013.19
2018-01-28T10:19:13.123Z,1013.18
2018-01-28T10:20:23.194Z,1013.12
2018-01-28T10:21:33.283Z,1013.17
2018-01-28T10:22:43.399Z,1013.13
2018-01-28T10:23:54.222Z,1013.06
2018-01-28T10:25:06.418Z,1012.98
2018-01-28T10:26:16.497Z,1013.1
2018-01-28T10:27:26.321Z,1013.06
2018-01-28T10:28:36.421Z,1013.1
2018-01-28T10:29:46.533Z,1012.99
2018-01-28T10:30:56.344Z,1013.05
2018-01-28T10:32:06.481Z,1012.94
2018-01-28T10:33:16.559Z,1012.88
2018-01-28T10:34:26.674Z,1012.96
2018-01-28T10:35:36.745Z,1012.92
2018-01-28T10:36:46.807Z,1013.08
2018-01-28T10:37:56.626Z,1013.05
2018-01-28T10:39:07.185Z,1012.86
2018-01-28T10:40:17.248Z,1013.04
2018-01-28T10:41:27.312Z,1012.97
2018-01-28T10:42:37.370Z,1012.92
2018-01-28T10:43:47.430Z,1012.97
2018-01-28T10:44:57.497Z,1012.96
2018-01-28T10:46:07.380Z,1012.95
2018-01-28T10:47:17.179Z,1013.02
2018-01-28T10:48:27.250Z,1013.04
2018-01-28T10:49:37.320Z,1012.98
2018-01-28T10:50:47.380Z,1012.95
2018-01-28T10:51:57.502Z,1013.02
2018-01-28T10:53:07.596Z,1012.94
2018-01-28T10:54:17.416Z,1012.96
2018-01-28T10:55:27.479Z,1012.86
2018-01-28T10:56:37.552Z,1013.03
2018-01-28T10:57:47.125Z,1012.97
2018-01-28T10:58:56.676Z,1013.06
2018-01-28T11:00:06.493Z,1013.04
2018-01-28T11:01:16.085Z,1013.02
2018-01-28T11:02:26.141Z,1012.94
2018-01-28T11:03:36.269Z,1013.07
2018-01-28T11:04:46.376Z,1012.97
2018-01-28T11:05:56.481Z,1012.91
2018-01-28T11:07:06.569Z,1012.91
2018-01-28T11:08:16.387Z,1013.11
2018-01-28T11:09:26.466Z,1012.99
2018-01-28T11:10:36.256Z,1012.87
2018-01-28T11:11:46.357Z,1012.83
2018-01-28T11:12:56.170Z,1012.88
2018-01-28T11:14:06.234Z,1012.79
2018-01-28T11:15:16.308Z,1012.88
2018-01-28T11:16:26.381Z,1012.98
2018-01-28T11:17:36.198Z,1013.01
2018-01-28T11:18:46.268Z,1012.88
2018-01-28T11:19:56.393Z,1012.77
2018-01-28T11:21:06.512Z,1012.99
2018-01-28T11:22:16.583Z,1012.9
2018-01-28T11:23:26.664Z,1012.95
2018-01-28T11:24:36.735Z,1013
2018-01-28T11:25:46.795Z,1012.88
2018-01-28T11:26:56.703Z,1013.08
2018-01-28T11:28:06.534Z,1013.02
2018-01-28T11:29:16.687Z,1012.85
2018-01-28T11:30:26.803Z,1013.1
2018-01-28T11:31:37.546Z,1012.99
2018-01-28T11:32:47.624Z,1012.99
2018-01-28T11:33:57.423Z,1013.06
2018-01-28T11:35:07.492Z,1012.99
2018-01-28T11:36:17.298Z,1012.91
2018-01-28T11:37:27.356Z,1012.96
2018-01-28T11:38:37.475Z,1012.95
2018-01-28T11:39:47.557Z,1012.92
2018-01-28T11:40:57.616Z,1012.89
2018-01-28T11:42:07.700Z,1013.03
2018-01-28T11:43:17.538Z,1012.9
2018-01-28T11:44:27.623Z,1012.85
2018-01-28T11:45:37.719Z,1012.72
2018-01-28T11:46:47.900Z,1012.74
2018-01-28T11:47:57.812Z,1012.72
2018-01-28T11:49:07.911Z,1012.81
2018-01-28T11:50:17.968Z,1012.75
2018-01-28T11:51:27.837Z,1012.59
2018-01-28T11:52:37.434Z,1012.69
2018-01-28T11:53:47.265Z,1012.64
2018-01-28T11:54:57.160Z,1012.78
2018-01-28T11:56:07.038Z,1012.65
2018-01-28T11:57:17.120Z,1012.71
2018-01-28T11:58:27.249Z,1012.73
2018-01-28T11:59:37.089Z,1012.84
2018-01-28T12:00:47.182Z,1012.86
2018-01-28T12:01:57.313Z,1012.78
2018-01-28T12:03:08.482Z,1012.68
2018-01-28T12:04:19.041Z,1012.71
2018-01-28T12:05:33.541Z,1012.65
2018-01-28T12:06:43.363Z,1012.85
2018-01-28T12:07:53.165Z,1012.71
2018-01-28T12:09:03.276Z,1012.81
2018-01-28T12:10:13.103Z,1012.78
2018-01-28T12:11:23.169Z,1012.98
2018-01-28T12:12:32.966Z,1012.77
2018-01-28T12:13:43.098Z,1012.9
2018-01-28T12:14:52.955Z,1012.87
2018-01-28T12:16:02.764Z,1012.97
2018-01-28T12:17:12.887Z,1012.94
2018-01-28T12:18:23.090Z,1013.02
2018-01-28T12:19:33.565Z,1012.96
2018-01-28T12:20:43.715Z,1012.93
2018-01-28T12:21:53.997Z,1012.95
2018-01-28T12:23:04.118Z,1013.02
2018-01-28T12:24:14.186Z,1012.93
2018-01-28T12:25:24.338Z,1013
2018-01-28T12:26:34.155Z,1013.01
2018-01-28T12:27:44.246Z,1012.91
2018-01-28T12:28:54.320Z,1012.93
2018-01-28T12:30:04.439Z,1013.05
2018-01-28T12:31:14.825Z,1012.99
2018-01-28T12:32:24.895Z,1013.03
2018-01-28T12:33:34.981Z,1013.04
2018-01-28T12:34:44.784Z,1013.06
2018-01-28T12:35:54.588Z,1012.95
2018-01-28T12:37:04.431Z,1013.07
2018-01-28T12:38:14.495Z,1013.04
2018-01-28T12:39:24.586Z,1013.19
2018-01-28T12:40:34.679Z,1013.01
2018-01-28T12:41:44.515Z,1013.04
2018-01-28T12:42:54.630Z,1012.98
2018-01-28T12:44:04.738Z,1013.06
2018-01-28T12:45:14.809Z,1013.08
2018-01-28T12:46:24.870Z,1012.92
2018-01-28T12:47:35.472Z,1013.11
2018-01-28T12:48:45.327Z,1013.08
2018-01-28T12:49:55.184Z,1013.06
2018-01-28T12:51:05.259Z,1013.04
2018-01-28T12:52:15.325Z,1013.06
2018-01-28T12:53:24.929Z,1012.98
2018-01-28T12:54:35.047Z,1012.98
2018-01-28T12:55:45.108Z,1013
2018-01-28T12:56:55.167Z,1013.13
2018-01-28T12:58:05.258Z,1013.14
2018-01-28T12:59:15.388Z,1013.13
2018-01-28T13:00:25.499Z,1013.18
2018-01-28T13:01:35.719Z,1013.13
2018-01-28T13:02:45.817Z,1013.16
2018-01-28T13:03:55.630Z,1013.09
2018-01-28T13:05:05.709Z,1013.1
2018-01-28T13:06:15.778Z,1013.09
2018-01-28T13:07:25.570Z,1013.08
2018-01-28T13:08:35.701Z,1013.25
2018-01-28T13:09:45.542Z,1013.22
2018-01-28T13:10:55.361Z,1013.25
2018-01-28T13:12:05.475Z,1013.18
2018-01-28T13:13:15.558Z,1013.16
2018-01-28T13:14:25.625Z,1013.13
2018-01-28T13:15:35.474Z,1013.13
2018-01-28T13:16:45.543Z,1013.1
2018-01-28T13:17:55.412Z,1013.14
2018-01-28T13:19:05.508Z,1013.1
2018-01-28T13:20:15.624Z,1012.99
2018-01-28T13:21:25.725Z,1012.96
2018-01-28T13:22:35.841Z,1013.06
2018-01-28T13:23:46.438Z,1013.01
2018-01-28T13:24:56.651Z,1012.98
2018-01-28T13:26:06.720Z,1013.05
2018-01-28T13:27:16.828Z,1013.03
2018-01-28T13:28:26.980Z,1013.01
2018-01-28T13:29:37.044Z,1013.01
2018-01-28T13:30:47.133Z,1012.94
2018-01-28T13:31:56.921Z,1013.04
2018-01-28T13:33:06.717Z,1012.95
2018-01-28T13:34:16.805Z,1012.85
2018-01-28T13:35:26.865Z,1012.91
2018-01-28T13:36:36.414Z,1012.93
2018-01-28T13:37:46.481Z,1012.95
2018-01-28T13:38:56.549Z,1012.82
2018-01-28T13:40:06.953Z,1012.87
2018-01-28T13:41:17.112Z,1012.89
2018-01-28T13:42:27.239Z,1012.85
2018-01-28T13:43:37.333Z,1012.88
2018-01-28T13:44:47.469Z,1012.95
2018-01-28T13:45:57.283Z,1012.93
2018-01-28T13:47:07.474Z,1012.92
2018-01-28T13:48:17.366Z,1012.94
2018-01-28T13:49:27.534Z,1012.96
2018-01-28T13:50:37.609Z,1012.96
2018-01-28T13:51:47.502Z,1013.06
2018-01-28T13:52:57.443Z,1012.99
2018-01-28T13:54:07.564Z,1012.94
2018-01-28T13:55:17.733Z,1012.96
2018-01-28T13:56:27.810Z,1012.97
2018-01-28T13:57:37.919Z,1012.97
2018-01-28T13:58:48.128Z,1013.07
2018-01-28T13:59:58.212Z,1013.05
2018-01-28T14:01:08.272Z,1013.08
2018-01-28T14:02:18.383Z,1013.03
2018-01-28T14:03:28.358Z,1013.08
2018-01-28T14:04:38.201Z,1013.06
2018-01-28T14:05:48.274Z,1013.01
2018-01-28T14:06:58.373Z,1013.06
2018-01-28T14:08:08.467Z,1013.09
2018-01-28T14:09:18.581Z,1013.11
2018-01-28T14:10:28.521Z,1013.09
2018-01-28T14:11:38.614Z,1013.04
2018-01-28T14:12:48.703Z,1013.11
2018-01-28T14:13:58.801Z,1013.1
2018-01-28T14:15:08.872Z,1013.07
2018-01-28T14:16:20.141Z,1013.1
2018-01-28T14:17:30.213Z,1013.12
2018-01-28T14:18:40.313Z,1013.13
2018-01-28T14:19:50.128Z,1013.16
2018-01-28T14:21:00.250Z,1013.18
2018-01-28T14:22:10.435Z,1013.26
2018-01-28T14:23:20.312Z,1013.21
2018-01-28T14:24:30.184Z,1013.21
2018-01-28T14:25:40.044Z,1013.12
2018-01-28T14:26:49.871Z,1013.16
2018-01-28T14:28:00.102Z,1013.19
2018-01-28T14:29:10.298Z,1013.09
2018-01-28T14:30:20.385Z,1013.09
2018-01-28T14:31:30.500Z,1013.07
2018-01-28T14:32:40.597Z,1013.13
2018-01-28T14:33:50.268Z,1013.14
2018-01-28T14:34:59.893Z,1013.08
2018-01-28T14:36:10.190Z,1013.1
2018-01-28T14:37:20.284Z,1013.1
2018-01-28T14:38:30.779Z,1013.12
2018-01-28T14:39:40.969Z,1013.11
2018-01-28T14:40:51.095Z,1013.08